createdAt,value
2017-03-29T00:00:16.518Z,42.16
2017-03-29T00:01:54.978Z,42.35
2017-03-29T00:02:35.962Z,42.73
2017-03-29T00:03:16.900Z,42.73
2017-03-29T00:03:57.810Z,43.02
2017-03-29T00:04:38.703Z,42.93
2017-03-29T00:05:19.680Z,42.93
2017-03-29T00:06:00.598Z,42.73
2017-03-29T00:06:41.549Z,42.73
2017-03-29T00:07:22.474Z,42.83
2017-03-29T00:08:03.397Z,42.93
2017-03-29T00:08:44.352Z,42.83
2017-03-29T00:10:13.420Z,43.3
2017-03-29T00:12:12.427Z,43.4
2017-03-29T00:13:50.964Z,43.57
2017-03-29T00:14:32.179Z,43.76
2017-03-29T00:15:13.350Z,43.66
2017-03-29T00:17:07.066Z,43.79
2017-03-29T00:17:48.145Z,43.76
2017-03-29T00:19:42.712Z,43.66
2017-03-29T00:20:23.599Z,43.57
2017-03-29T00:21:04.485Z,43.76
2017-03-29T00:21:45.359Z,43.86
2017-03-29T00:22:26.243Z,44.05
2017-03-29T00:23:07.155Z,44.34
2017-03-29T00:23:48.047Z,44.43
2017-03-29T00:24:28.937Z,44.15
2017-03-29T00:25:09.827Z,44.62
2017-03-29T00:25:50.712Z,44.15
2017-03-29T00:26:31.590Z,44.05
2017-03-29T00:27:12.482Z,44.62
2017-03-29T00:27:53.375Z,44.15
2017-03-29T00:28:34.259Z,44.34
2017-03-29T00:29:15.151Z,44.34
2017-03-29T00:29:56.035Z,44.34
2017-03-29T00:30:36.919Z,44.72
2017-03-29T00:31:17.802Z,44.15
2017-03-29T00:31:58.692Z,44.62
2017-03-29T00:32:39.576Z,44.62
2017-03-29T00:33:20.455Z,44.72
2017-03-29T00:34:01.343Z,44.53
2017-03-29T00:34:42.251Z,44.62
2017-03-29T00:35:23.138Z,44.91
2017-03-29T00:36:04.031Z,45.1
2017-03-29T00:36:44.916Z,45.1
2017-03-29T00:37:25.805Z,44.81
2017-03-29T00:38:06.692Z,44.53
2017-03-29T00:38:47.576Z,44.91
2017-03-29T00:39:28.460Z,44.91
2017-03-29T00:40:09.345Z,44.81
2017-03-29T00:40:50.237Z,45.1
2017-03-29T00:41:31.121Z,45.1
2017-03-29T00:42:12.008Z,45.96
2017-03-29T00:42:52.900Z,45.67
2017-03-29T00:43:33.789Z,44.81
2017-03-29T00:44:14.669Z,44.91
2017-03-29T00:44:55.575Z,44.81
2017-03-29T00:45:36.458Z,45.27
2017-03-29T00:46:17.336Z,45.37
2017-03-29T00:46:58.222Z,45.84
2017-03-29T00:47:39.108Z,45.65
2017-03-29T00:48:20.019Z,45.75
2017-03-29T00:49:00.876Z,45.46
2017-03-29T00:49:41.762Z,45.84
2017-03-29T00:50:22.645Z,45.37
2017-03-29T00:51:03.531Z,45.84
2017-03-29T00:51:44.414Z,46.22
2017-03-29T00:52:25.315Z,45.94
2017-03-29T00:53:06.200Z,46.03
2017-03-29T00:53:47.085Z,45.84
2017-03-29T00:54:27.968Z,45.84
2017-03-29T00:55:08.855Z,45.84
2017-03-29T00:55:49.751Z,45.75
2017-03-29T00:56:30.634Z,46.03
2017-03-29T00:57:11.520Z,45.75
2017-03-29T00:57:52.409Z,45.65
2017-03-29T00:58:33.297Z,45.56
2017-03-29T00:59:14.180Z,46.13
2017-03-29T00:59:55.064Z,46.13
2017-03-29T01:00:35.958Z,45.75
2017-03-29T01:01:16.838Z,45.84
2017-03-29T01:01:57.729Z,46.13
2017-03-29T01:02:38.616Z,45.84
2017-03-29T01:03:19.497Z,45.84
2017-03-29T01:04:00.384Z,46.03
2017-03-29T01:04:41.267Z,45.94
2017-03-29T01:05:22.165Z,45.94
2017-03-29T01:06:03.048Z,45.75
2017-03-29T01:06:43.942Z,46.22
2017-03-29T01:07:24.839Z,46.22
2017-03-29T01:08:05.722Z,46.42
2017-03-29T01:08:46.644Z,46.22
2017-03-29T01:09:27.531Z,46.8
2017-03-29T01:10:08.417Z,46.61
2017-03-29T01:10:49.309Z,46.22
2017-03-29T01:11:30.193Z,46.42
2017-03-29T01:12:11.074Z,46.7
2017-03-29T01:12:51.954Z,46.51
2017-03-29T01:13:32.838Z,46.61
2017-03-29T01:14:13.726Z,46.8
2017-03-29T01:14:54.609Z,46.99
2017-03-29T01:15:35.498Z,47.18
2017-03-29T01:16:16.381Z,46.99
2017-03-29T01:16:57.273Z,47.18
2017-03-29T01:17:38.156Z,46.99
2017-03-29T01:18:19.044Z,46.89
2017-03-29T01:18:59.928Z,46.89
2017-03-29T01:19:40.815Z,47.08
2017-03-29T01:20:21.697Z,46.7
2017-03-29T01:21:02.584Z,46.8
2017-03-29T01:21:43.469Z,46.7
2017-03-29T01:22:24.357Z,46.89
2017-03-29T01:23:05.239Z,47.08
2017-03-29T01:23:46.123Z,46.7
2017-03-29T01:24:27.010Z,46.99
2017-03-29T01:25:07.894Z,46.8
2017-03-29T01:25:48.791Z,47.18
2017-03-29T01:26:29.676Z,46.89
2017-03-29T01:27:10.559Z,46.89
2017-03-29T01:27:51.439Z,47.27
2017-03-29T01:28:32.320Z,47.54
2017-03-29T01:29:13.211Z,47.85
2017-03-29T01:29:54.095Z,47.75
2017-03-29T01:30:34.983Z,47.63
2017-03-29T01:31:15.870Z,48.11
2017-03-29T01:31:56.754Z,48.21
2017-03-29T01:32:37.638Z,47.92
2017-03-29T01:33:18.526Z,48.02
2017-03-29T01:33:59.420Z,48.3
2017-03-29T01:34:40.301Z,48.02
2017-03-29T01:35:21.183Z,48.02
2017-03-29T01:36:02.064Z,48.21
2017-03-29T01:36:42.944Z,48.11
2017-03-29T01:37:23.835Z,48.59
2017-03-29T01:38:04.724Z,48.49
2017-03-29T01:38:45.607Z,48.59
2017-03-29T01:39:26.492Z,48.49
2017-03-29T01:40:07.391Z,48.02
2017-03-29T01:40:48.285Z,48.21
2017-03-29T01:41:29.173Z,48.11
2017-03-29T01:42:10.059Z,48.21
2017-03-29T01:42:50.943Z,47.82
2017-03-29T01:43:31.830Z,48.11
2017-03-29T01:44:12.714Z,48.11
2017-03-29T01:44:53.601Z,47.82
2017-03-29T01:45:34.492Z,48.39
2017-03-29T01:46:15.375Z,47.92
2017-03-29T01:46:56.257Z,48.59
2017-03-29T01:47:37.142Z,48.59
2017-03-29T01:48:18.027Z,48.3
2017-03-29T01:48:58.913Z,48.78
2017-03-29T01:49:39.791Z,48.39
2017-03-29T01:50:20.668Z,48.68
2017-03-29T01:51:01.572Z,48.78
2017-03-29T01:51:42.449Z,48.59
2017-03-29T01:52:23.332Z,48.59
2017-03-29T01:53:04.214Z,48.49
2017-03-29T01:53:45.106Z,48.68
2017-03-29T01:54:25.998Z,48.59
2017-03-29T01:55:06.884Z,49.35
2017-03-29T01:55:47.768Z,48.68
2017-03-29T01:56:28.655Z,49.07
2017-03-29T01:57:09.537Z,49.26
2017-03-29T01:57:50.426Z,49.44
2017-03-29T01:58:31.320Z,49.64
2017-03-29T01:59:12.205Z,49.07
2017-03-29T01:59:53.093Z,49.64
2017-03-29T02:00:33.976Z,49.26
2017-03-29T02:01:14.864Z,50.12
2017-03-29T02:01:55.754Z,50.02
2017-03-29T02:02:36.635Z,50.31
2017-03-29T02:03:17.522Z,49.9
2017-03-29T02:03:58.418Z,49.54
2017-03-29T02:04:39.299Z,50.12
2017-03-29T02:05:20.183Z,49.93
2017-03-29T02:06:01.082Z,50.12
2017-03-29T02:06:41.960Z,50.18
2017-03-29T02:07:22.848Z,49.9
2017-03-29T02:08:03.740Z,50.88
2017-03-29T02:08:44.623Z,50.4
2017-03-29T02:09:25.510Z,50.47
2017-03-29T02:10:06.396Z,49.93
2017-03-29T02:10:47.533Z,50.4
2017-03-29T02:11:28.626Z,50.12
2017-03-29T02:12:09.507Z,50.4
2017-03-29T02:12:50.386Z,50.21
2017-03-29T02:13:31.282Z,50.67
2017-03-29T02:14:12.173Z,50.76
2017-03-29T02:14:53.049Z,50.18
2017-03-29T02:15:33.936Z,50.76
2017-03-29T02:16:14.826Z,50.47
2017-03-29T02:16:55.710Z,50.57
2017-03-29T02:17:36.608Z,50.85
2017-03-29T02:18:17.462Z,50.85
2017-03-29T02:18:58.344Z,50.85
2017-03-29T02:19:39.233Z,51.04
2017-03-29T02:20:20.111Z,51.62
2017-03-29T02:21:00.987Z,51.23
2017-03-29T02:21:41.881Z,50.38
2017-03-29T02:22:22.773Z,51.04
2017-03-29T02:23:03.656Z,51.14
2017-03-29T02:23:44.533Z,51.14
2017-03-29T02:24:25.413Z,50.88
2017-03-29T02:25:06.287Z,51.33
2017-03-29T02:25:47.171Z,50.95
2017-03-29T02:26:28.056Z,51.14
2017-03-29T02:27:08.931Z,51.14
2017-03-29T02:27:49.822Z,50.95
2017-03-29T02:28:30.704Z,51.23
2017-03-29T02:29:11.588Z,51.14
2017-03-29T02:29:52.471Z,51.62
2017-03-29T02:30:33.365Z,51.62
2017-03-29T02:31:14.270Z,52.09
2017-03-29T02:31:55.153Z,51.81
2017-03-29T02:32:36.042Z,52.09
2017-03-29T02:33:17.644Z,52.48
2017-03-29T02:33:58.523Z,52.67
2017-03-29T02:34:39.412Z,51.81
2017-03-29T02:35:20.304Z,51.81
2017-03-29T02:36:01.179Z,52
2017-03-29T02:36:42.057Z,52.19
2017-03-29T02:37:22.944Z,52
2017-03-29T02:38:03.844Z,52.09
2017-03-29T02:38:44.726Z,52.09
2017-03-29T02:39:25.611Z,52.09
2017-03-29T02:40:06.501Z,52.19
2017-03-29T02:40:47.384Z,52.38
2017-03-29T02:41:28.265Z,52.38
2017-03-29T02:42:09.151Z,52.38
2017-03-29T02:42:50.048Z,52.57
2017-03-29T02:43:30.928Z,52.38
2017-03-29T02:44:11.814Z,52.57
2017-03-29T02:44:52.694Z,52.38
2017-03-29T02:45:33.581Z,52.38
2017-03-29T02:46:14.463Z,52.48
2017-03-29T02:46:55.333Z,52.48
2017-03-29T02:47:36.226Z,52.38
2017-03-29T02:48:17.117Z,52.57
2017-03-29T02:48:57.995Z,52.86
2017-03-29T02:49:38.883Z,53.02
2017-03-29T02:50:19.771Z,52.83
2017-03-29T02:51:00.656Z,52.95
2017-03-29T02:51:41.537Z,52.86
2017-03-29T02:52:22.423Z,52.92
2017-03-29T02:53:03.311Z,53.12
2017-03-29T02:53:44.192Z,53.5
2017-03-29T02:54:25.075Z,53.41
2017-03-29T02:55:05.963Z,53.31
2017-03-29T02:55:46.852Z,53.5
2017-03-29T02:56:27.738Z,53.31
2017-03-29T02:57:08.627Z,52.76
2017-03-29T02:57:49.510Z,52.73
2017-03-29T02:58:31.132Z,52.92
2017-03-29T02:59:12.018Z,53.14
2017-03-29T02:59:52.905Z,53.59
2017-03-29T03:00:33.787Z,53.41
2017-03-29T03:01:14.665Z,53.21
2017-03-29T03:01:55.552Z,52.55
2017-03-29T03:02:36.443Z,52.83
2017-03-29T03:03:17.326Z,53.69
2017-03-29T03:03:58.224Z,53.88
2017-03-29T03:04:39.110Z,53.69
2017-03-29T03:05:19.993Z,53.21
2017-03-29T03:06:00.877Z,53.21
2017-03-29T03:06:41.761Z,53.88
2017-03-29T03:07:22.647Z,53.5
2017-03-29T03:08:03.544Z,53.69
2017-03-29T03:08:44.430Z,53.97
2017-03-29T03:09:25.320Z,54.36
2017-03-29T03:10:06.199Z,54.07
2017-03-29T03:10:47.074Z,53.59
2017-03-29T03:11:27.945Z,53.41
2017-03-29T03:12:08.827Z,53.31
2017-03-29T03:12:49.722Z,53.69
2017-03-29T03:13:30.595Z,53.41
2017-03-29T03:14:11.479Z,53.88
2017-03-29T03:14:52.365Z,53.78
2017-03-29T03:15:33.249Z,53.5
2017-03-29T03:16:14.180Z,53.97
2017-03-29T03:16:55.066Z,53.88
2017-03-29T03:17:35.948Z,54.26
2017-03-29T03:18:16.846Z,53.97
2017-03-29T03:18:57.736Z,54.45
2017-03-29T03:19:38.616Z,53.97
2017-03-29T03:20:19.499Z,53.5
2017-03-29T03:21:00.386Z,54.07
2017-03-29T03:21:41.266Z,53.88
2017-03-29T03:22:22.152Z,54.07
2017-03-29T03:23:03.020Z,54.07
2017-03-29T03:23:43.897Z,53.88
2017-03-29T03:24:24.777Z,53.69
2017-03-29T03:25:05.665Z,54.07
2017-03-29T03:25:46.549Z,54.36
2017-03-29T03:26:27.428Z,54.17
2017-03-29T03:27:08.313Z,54.17
2017-03-29T03:27:49.200Z,53.97
2017-03-29T03:28:30.078Z,54.26
2017-03-29T03:29:10.958Z,53.97
2017-03-29T03:29:51.845Z,54.74
2017-03-29T03:30:32.726Z,54.55
2017-03-29T03:31:13.609Z,54.93
2017-03-29T03:31:54.495Z,54.74
2017-03-29T03:32:35.379Z,54.26
2017-03-29T03:33:16.267Z,54.93
2017-03-29T03:33:57.152Z,54.64
2017-03-29T03:34:38.038Z,54.26
2017-03-29T03:35:18.923Z,54.26
2017-03-29T03:35:59.818Z,54.64
2017-03-29T03:36:40.709Z,54.26
2017-03-29T03:37:21.592Z,54.64
2017-03-29T03:38:02.485Z,54.36
2017-03-29T03:38:43.364Z,55.12
2017-03-29T03:39:24.241Z,55.21
2017-03-29T03:40:05.127Z,54.64
2017-03-29T03:40:46.011Z,54.9
2017-03-29T03:41:26.898Z,55.19
2017-03-29T03:42:07.778Z,54.9
2017-03-29T03:42:48.664Z,55.09
2017-03-29T03:43:29.555Z,55.47
2017-03-29T03:44:10.440Z,55.09
2017-03-29T03:44:51.329Z,55.19
2017-03-29T03:45:32.215Z,55.38
2017-03-29T03:46:13.109Z,55.47
2017-03-29T03:46:54.003Z,55.19
2017-03-29T03:47:34.891Z,55.31
2017-03-29T03:48:15.773Z,55.21
2017-03-29T03:48:56.658Z,55.31
2017-03-29T03:49:37.544Z,55.12
2017-03-29T03:50:18.426Z,54.64
2017-03-29T03:50:59.302Z,54.74
2017-03-29T03:51:40.187Z,54.55
2017-03-29T03:52:21.069Z,55.09
2017-03-29T03:53:01.953Z,55.09
2017-03-29T03:53:42.833Z,55.19
2017-03-29T03:54:23.717Z,55.09
2017-03-29T03:55:04.602Z,55.41
2017-03-29T03:55:45.490Z,55.21
2017-03-29T03:56:26.375Z,55.12
2017-03-29T03:57:07.254Z,55.09
2017-03-29T03:57:48.138Z,54.9
2017-03-29T03:58:29.030Z,55
2017-03-29T03:59:09.935Z,55.09
2017-03-29T03:59:50.793Z,55.57
2017-03-29T04:00:31.675Z,55.19
2017-03-29T04:01:12.560Z,55.47
2017-03-29T04:01:53.442Z,55.28
2017-03-29T04:02:34.327Z,55.38
2017-03-29T04:03:15.231Z,55.66
2017-03-29T04:03:56.114Z,55.19
2017-03-29T04:04:36.995Z,54.71
2017-03-29T04:05:17.880Z,55.19
2017-03-29T04:05:58.767Z,55.28
2017-03-29T04:06:39.652Z,55.28
2017-03-29T04:07:20.533Z,55.28
2017-03-29T04:08:01.415Z,55.09
2017-03-29T04:08:42.301Z,55.09
2017-03-29T04:09:23.179Z,55.19
2017-03-29T04:10:04.071Z,55.28
2017-03-29T04:10:44.948Z,55.38
2017-03-29T04:11:25.836Z,55.09
2017-03-29T04:12:06.721Z,55
2017-03-29T04:12:47.603Z,54.9
2017-03-29T04:13:28.485Z,55.19
2017-03-29T04:14:09.374Z,55.28
2017-03-29T04:14:50.250Z,55.28
2017-03-29T04:15:31.128Z,55.28
2017-03-29T04:16:12.011Z,55.38
2017-03-29T04:16:52.896Z,54.9
2017-03-29T04:17:33.780Z,55.19
2017-03-29T04:18:14.658Z,55.47
2017-03-29T04:18:55.547Z,55.38
2017-03-29T04:19:36.427Z,55.28
2017-03-29T04:20:17.310Z,55.57
2017-03-29T04:20:58.192Z,55.76
2017-03-29T04:21:39.078Z,55.21
2017-03-29T04:22:19.968Z,55.28
2017-03-29T04:23:00.852Z,55.09
2017-03-29T04:23:41.731Z,54.9
2017-03-29T04:24:22.616Z,55.6
2017-03-29T04:25:03.504Z,55.02
2017-03-29T04:25:44.391Z,54.64
2017-03-29T04:26:25.277Z,54.64
2017-03-29T04:27:06.172Z,55.02
2017-03-29T04:27:47.058Z,54.74
2017-03-29T04:28:27.940Z,54.64
2017-03-29T04:29:08.828Z,54.93
2017-03-29T04:29:49.722Z,54.93
2017-03-29T04:30:30.604Z,54.83
2017-03-29T04:31:11.495Z,54.45
2017-03-29T04:31:52.399Z,54.74
2017-03-29T04:32:33.278Z,54.74
2017-03-29T04:33:14.163Z,54.8
2017-03-29T04:33:55.056Z,54.55
2017-03-29T04:34:35.942Z,54.61
2017-03-29T04:35:16.815Z,54.52
2017-03-29T04:35:57.703Z,54.8
2017-03-29T04:36:38.596Z,54.74
2017-03-29T04:37:19.478Z,55.12
2017-03-29T04:38:00.365Z,54.36
2017-03-29T04:38:41.242Z,54.36
2017-03-29T04:39:22.130Z,54.64
2017-03-29T04:40:03.013Z,54.43
2017-03-29T04:40:43.897Z,55.09
2017-03-29T04:41:24.778Z,54.8
2017-03-29T04:42:05.662Z,55.09
2017-03-29T04:42:46.550Z,54.9
2017-03-29T04:43:27.436Z,55.19
2017-03-29T04:44:08.317Z,54.74
2017-03-29T04:44:49.205Z,54.61
2017-03-29T04:45:30.095Z,55
2017-03-29T04:46:10.960Z,54.8
2017-03-29T04:46:51.838Z,54.8
2017-03-29T04:47:32.720Z,55.09
2017-03-29T04:48:13.637Z,55.28
2017-03-29T04:50:12.483Z,54.64
2017-03-29T04:50:53.451Z,54.61
2017-03-29T04:51:34.422Z,54.52
2017-03-29T04:52:15.382Z,55.09
2017-03-29T04:52:56.335Z,55.09
2017-03-29T04:53:37.225Z,55.19
2017-03-29T04:54:18.110Z,55
2017-03-29T04:54:58.987Z,54.9
2017-03-29T04:55:39.861Z,54.55
2017-03-29T04:56:20.745Z,54.71
2017-03-29T04:57:01.630Z,54.71
2017-03-29T04:57:42.514Z,54.9
2017-03-29T04:58:23.397Z,54.43
2017-03-29T04:59:04.282Z,54.52
2017-03-29T05:00:32.355Z,54.74
2017-03-29T05:01:13.240Z,54.64
2017-03-29T05:01:54.118Z,54.8
2017-03-29T05:02:34.999Z,55
2017-03-29T05:03:15.905Z,54.52
2017-03-29T05:03:56.788Z,54.9
2017-03-29T05:04:37.672Z,55.09
2017-03-29T05:05:18.558Z,54.61
2017-03-29T05:05:59.437Z,54.52
2017-03-29T05:06:40.324Z,54.9
2017-03-29T05:07:21.208Z,54.24
2017-03-29T05:08:02.085Z,54.36
2017-03-29T05:08:42.954Z,54.33
2017-03-29T05:09:23.858Z,54.61
2017-03-29T05:10:04.743Z,54.33
2017-03-29T05:10:45.619Z,54.24
2017-03-29T05:11:26.501Z,54.52
2017-03-29T05:12:07.396Z,54.55
2017-03-29T05:12:48.295Z,54.43
2017-03-29T05:13:29.183Z,54.33
2017-03-29T05:14:10.069Z,54.24
2017-03-29T05:15:49.524Z,54.33
2017-03-29T05:16:30.412Z,54.36
2017-03-29T05:17:11.297Z,53.97
2017-03-29T05:17:52.181Z,54.17
2017-03-29T05:18:33.072Z,53.5
2017-03-29T05:19:13.955Z,53.59
2017-03-29T05:19:54.848Z,53.78
2017-03-29T05:20:35.734Z,53.5
2017-03-29T05:21:16.652Z,53.78
2017-03-29T05:21:57.514Z,53.88
2017-03-29T05:22:38.415Z,53.41
2017-03-29T05:23:19.290Z,53.59
2017-03-29T05:24:00.169Z,53.88
2017-03-29T05:24:41.067Z,53.5
2017-03-29T05:25:21.942Z,52.83
2017-03-29T05:26:02.825Z,53.21
2017-03-29T05:26:43.711Z,52.73
2017-03-29T05:27:24.597Z,53.12
2017-03-29T05:28:05.480Z,52.92
2017-03-29T05:28:46.360Z,52.83
2017-03-29T05:29:27.263Z,53.02
2017-03-29T05:30:08.196Z,52.83
2017-03-29T05:30:49.085Z,52.73
2017-03-29T05:31:29.981Z,52.36
2017-03-29T05:32:10.855Z,52.45
2017-03-29T05:32:51.730Z,52.07
2017-03-29T05:33:32.613Z,52.73
2017-03-29T05:34:13.497Z,52.55
2017-03-29T05:34:54.381Z,52.83
2017-03-29T05:35:35.260Z,52.36
2017-03-29T05:36:16.142Z,52.36
2017-03-29T05:36:57.023Z,52.36
2017-03-29T05:37:37.899Z,52.45
2017-03-29T05:38:18.780Z,52.36
2017-03-29T05:38:59.661Z,52.07
2017-03-29T05:39:40.542Z,51.68
2017-03-29T05:40:21.426Z,52.28
2017-03-29T05:41:02.302Z,52.57
2017-03-29T05:41:43.190Z,52.48
2017-03-29T05:42:24.079Z,52.09
2017-03-29T05:43:04.962Z,51.81
2017-03-29T05:43:45.843Z,52.09
2017-03-29T05:44:26.727Z,52.28
2017-03-29T05:45:07.613Z,51.52
2017-03-29T05:45:48.495Z,51.81
2017-03-29T05:46:29.385Z,52.09
2017-03-29T05:47:10.249Z,51.9
2017-03-29T05:47:51.133Z,51.43
2017-03-29T05:48:32.022Z,51.43
2017-03-29T05:49:12.901Z,51.71
2017-03-29T05:49:53.790Z,51.9
2017-03-29T05:50:34.680Z,51.14
2017-03-29T05:51:15.560Z,51.62
2017-03-29T05:51:56.442Z,51.62
2017-03-29T05:52:37.322Z,51.81
2017-03-29T05:53:18.205Z,51.43
2017-03-29T05:53:59.097Z,51.81
2017-03-29T05:54:39.980Z,51.71
2017-03-29T05:55:20.858Z,52.4
2017-03-29T05:56:01.746Z,51.19
2017-03-29T05:56:42.627Z,50.74
2017-03-29T05:57:23.508Z,50.16
2017-03-29T05:58:04.391Z,47.97
2017-03-29T05:58:45.280Z,47.78
2017-03-29T05:59:26.163Z,49.09
2017-03-29T06:00:07.040Z,49.66
2017-03-29T06:00:47.902Z,50.12
2017-03-29T06:01:28.814Z,51.26
2017-03-29T06:02:09.694Z,51.29
2017-03-29T06:02:50.573Z,51.26
2017-03-29T06:03:31.458Z,50.31
2017-03-29T06:04:12.348Z,50.88
2017-03-29T06:04:53.224Z,50.33
2017-03-29T06:05:34.111Z,50.04
2017-03-29T06:06:14.994Z,50.04
2017-03-29T06:06:55.879Z,50.43
2017-03-29T06:07:36.761Z,49.85
2017-03-29T06:08:17.641Z,49.47
2017-03-29T06:08:58.525Z,49.18
2017-03-29T06:09:39.413Z,49.95
2017-03-29T06:10:20.293Z,50.14
2017-03-29T06:11:01.169Z,50.62
2017-03-29T06:11:42.054Z,50.04
2017-03-29T06:12:22.937Z,50.26
2017-03-29T06:13:03.823Z,49.21
2017-03-29T06:13:44.710Z,48.93
2017-03-29T06:14:25.598Z,49.21
2017-03-29T06:15:06.490Z,49.49
2017-03-29T06:15:47.365Z,49.4
2017-03-29T06:16:28.245Z,49.33
2017-03-29T06:17:09.120Z,48.85
2017-03-29T06:17:50.009Z,47.8
2017-03-29T06:18:30.895Z,48.28
2017-03-29T06:19:11.775Z,47.89
2017-03-29T06:19:52.755Z,47.99
2017-03-29T06:20:33.538Z,48.75
2017-03-29T06:21:14.425Z,48.66
2017-03-29T06:21:55.311Z,48.66
2017-03-29T06:22:36.192Z,48.38
2017-03-29T06:23:17.077Z,49.23
2017-03-29T06:23:57.959Z,49.04
2017-03-29T06:24:38.835Z,49.33
2017-03-29T06:25:19.725Z,48.85
2017-03-29T06:26:00.614Z,48.38
2017-03-29T06:26:41.498Z,48.28
2017-03-29T06:27:22.382Z,50.86
2017-03-29T06:28:03.258Z,55.74
2017-03-29T06:28:44.175Z,55.26
2017-03-29T06:29:25.026Z,52.4
2017-03-29T06:30:05.910Z,50.26
2017-03-29T06:30:46.794Z,52.59
2017-03-29T06:31:27.688Z,52.36
2017-03-29T06:32:08.564Z,51.81
2017-03-29T06:32:49.447Z,74.76
2017-03-29T06:33:30.325Z,44.46
2017-03-29T06:34:11.212Z,51.18
2017-03-29T06:34:52.093Z,50.27
2017-03-29T06:35:32.973Z,50.12
2017-03-29T06:36:13.858Z,50.67
2017-03-29T06:36:54.744Z,51.51
2017-03-29T06:37:35.628Z,52.56
2017-03-29T06:38:16.507Z,48.73
2017-03-29T06:38:57.420Z,48.71
2017-03-29T06:39:38.321Z,50.46
2017-03-29T06:40:19.203Z,49.76
2017-03-29T06:41:00.087Z,49.38
2017-03-29T06:41:40.973Z,47.94
2017-03-29T06:42:21.854Z,46.98
2017-03-29T06:43:02.739Z,46.31
2017-03-29T06:43:43.626Z,45.07
2017-03-29T06:44:24.537Z,44.69
2017-03-29T06:45:05.436Z,45.36
2017-03-29T06:45:46.298Z,45.74
2017-03-29T06:46:27.186Z,45.65
2017-03-29T06:47:08.066Z,45.65
2017-03-29T06:47:48.948Z,44.69
2017-03-29T06:48:29.830Z,44.43
2017-03-29T06:49:10.707Z,44.79
2017-03-29T06:49:51.619Z,45.26
2017-03-29T06:50:32.480Z,45.45
2017-03-29T06:51:13.363Z,46.22
2017-03-29T06:51:54.244Z,46.12
2017-03-29T06:52:35.124Z,46.61
2017-03-29T06:53:16.001Z,47.85
2017-03-29T06:53:56.879Z,46.72
2017-03-29T06:54:37.763Z,45.67
2017-03-29T06:55:18.641Z,45.45
2017-03-29T06:55:59.516Z,45.94
2017-03-29T06:56:40.387Z,45.38
2017-03-29T06:57:21.270Z,44.81
2017-03-29T06:58:02.148Z,45.57
2017-03-29T06:58:43.078Z,45.48
2017-03-29T06:59:23.962Z,46.15
2017-03-29T07:00:04.832Z,45.57
2017-03-29T07:00:45.709Z,45.48
2017-03-29T07:01:26.590Z,46.15
2017-03-29T07:02:07.459Z,45
2017-03-29T07:02:48.342Z,45
2017-03-29T07:03:29.232Z,44.83
2017-03-29T07:04:10.138Z,44.35
2017-03-29T07:04:51.032Z,43.87
2017-03-29T07:05:31.877Z,44.16
2017-03-29T07:06:12.744Z,44.13
2017-03-29T07:06:53.621Z,44.71
2017-03-29T07:07:34.509Z,44.9
2017-03-29T07:08:15.394Z,44.9
2017-03-29T07:08:56.282Z,44.43
2017-03-29T07:09:37.171Z,44.33
2017-03-29T07:10:18.108Z,44.54
2017-03-29T07:10:58.972Z,43.87
2017-03-29T07:11:39.851Z,43.51
2017-03-29T07:12:20.734Z,42.46
2017-03-29T07:13:01.612Z,42
2017-03-29T07:13:42.493Z,41.93
2017-03-29T07:14:23.373Z,41.35
2017-03-29T07:15:04.253Z,41.88
2017-03-29T07:15:45.135Z,42.47
2017-03-29T07:16:26.022Z,42.94
2017-03-29T07:17:06.923Z,42.67
2017-03-29T07:17:47.784Z,41.9
2017-03-29T07:18:28.667Z,43.03
2017-03-29T07:19:09.716Z,43.59
2017-03-29T07:19:50.594Z,43.2
2017-03-29T07:20:31.471Z,43.51
2017-03-29T07:21:12.351Z,42.84
2017-03-29T07:21:53.232Z,43.97
2017-03-29T07:22:34.117Z,44.83
2017-03-29T07:23:15.005Z,44.06
2017-03-29T07:23:55.886Z,43.41
2017-03-29T07:24:36.768Z,43.68
2017-03-29T07:25:17.664Z,44.64
2017-03-29T07:25:58.546Z,44.73
2017-03-29T07:26:39.429Z,44.73
2017-03-29T07:27:20.305Z,45
2017-03-29T07:28:01.188Z,46.53
2017-03-29T07:28:42.066Z,46.34
2017-03-29T07:29:22.949Z,45.69
2017-03-29T07:30:03.824Z,45.5
2017-03-29T07:30:44.699Z,45.21
2017-03-29T07:31:25.579Z,45.21
2017-03-29T07:32:06.458Z,47.68
2017-03-29T07:32:47.339Z,49.31
2017-03-29T07:33:28.218Z,48.73
2017-03-29T07:34:09.125Z,47.97
2017-03-29T07:34:50.002Z,47.11
2017-03-29T07:35:30.881Z,48.25
2017-03-29T07:36:11.757Z,47.13
2017-03-29T07:36:52.649Z,45.81
2017-03-29T07:37:33.525Z,5.36
2017-03-29T07:38:14.405Z,13.2
2017-03-29T07:38:55.287Z,13.2
2017-03-29T07:39:36.171Z,0
2017-03-29T07:40:17.069Z,0
2017-03-29T07:40:57.987Z,0
2017-03-29T07:41:38.920Z,0
2017-03-29T07:42:19.802Z,0
2017-03-29T07:43:00.684Z,0
2017-03-29T07:43:41.575Z,0
2017-03-29T07:44:22.448Z,0
2017-03-29T07:45:03.335Z,0
2017-03-29T07:45:44.220Z,0
2017-03-29T07:46:25.102Z,0
2017-03-29T07:47:05.991Z,0
2017-03-29T07:47:46.868Z,0
2017-03-29T07:48:27.750Z,0
2017-03-29T07:49:08.627Z,0
2017-03-29T07:49:49.502Z,0
2017-03-29T07:50:30.438Z,0
2017-03-29T07:51:11.254Z,38.14
2017-03-29T07:51:52.204Z,13.2
2017-03-29T07:52:33.038Z,13.2
2017-03-29T07:53:13.915Z,13.2
2017-03-29T07:53:54.797Z,13.2
2017-03-29T07:54:35.673Z,63.51
2017-03-29T07:55:16.552Z,62.84
2017-03-29T07:55:57.426Z,61.6
2017-03-29T07:56:38.294Z,62.08
2017-03-29T07:57:19.167Z,62.17
2017-03-29T07:58:00.053Z,60.64
2017-03-29T07:58:40.943Z,60.26
2017-03-29T07:59:21.827Z,59.78
2017-03-29T08:00:02.695Z,60.06
2017-03-29T08:00:43.566Z,59.11
2017-03-29T08:01:24.443Z,60.06
2017-03-29T08:02:05.325Z,59.49
2017-03-29T08:02:46.210Z,59.78
2017-03-29T08:03:27.090Z,60.06
2017-03-29T08:04:07.971Z,60.13
2017-03-29T08:04:48.872Z,60.16
2017-03-29T08:05:29.740Z,59.94
2017-03-29T08:06:10.601Z,60.06
2017-03-29T08:06:51.478Z,59.2
2017-03-29T08:07:32.344Z,58.54
2017-03-29T08:08:13.221Z,59.11
2017-03-29T08:08:54.101Z,58.54
2017-03-29T08:09:34.988Z,59.49
2017-03-29T08:10:15.875Z,59.11
2017-03-29T08:10:56.760Z,59.01
2017-03-29T08:11:37.649Z,58.34
2017-03-29T08:12:18.522Z,58.47
2017-03-29T08:12:59.419Z,57.61
2017-03-29T08:13:40.309Z,57.51
2017-03-29T08:14:21.202Z,56.3
2017-03-29T08:15:02.082Z,55.63
2017-03-29T08:15:42.976Z,55.73
2017-03-29T08:16:23.863Z,55.91
2017-03-29T08:17:04.779Z,55.82
2017-03-29T08:17:45.627Z,56.1
2017-03-29T08:18:26.513Z,55.53
2017-03-29T08:19:07.399Z,56.08
2017-03-29T08:19:48.284Z,56.46
2017-03-29T08:20:29.167Z,56.94
2017-03-29T08:21:10.080Z,57.32
2017-03-29T08:21:50.957Z,57.42
2017-03-29T08:22:31.844Z,57.13
2017-03-29T08:23:12.730Z,57.32
2017-03-29T08:23:53.620Z,57.61
2017-03-29T08:24:34.496Z,57.68
2017-03-29T08:25:15.369Z,57.48
2017-03-29T08:25:56.247Z,57.97
2017-03-29T08:26:37.132Z,58.44
2017-03-29T08:27:18.015Z,58.25
2017-03-29T08:27:58.886Z,58.54
2017-03-29T08:28:39.777Z,59.01
2017-03-29T08:29:20.669Z,58.83
2017-03-29T08:30:01.560Z,59.08
2017-03-29T08:30:42.454Z,59.18
2017-03-29T08:31:23.337Z,59.37
2017-03-29T08:32:04.223Z,59.18
2017-03-29T08:32:45.103Z,59.47
2017-03-29T08:33:25.984Z,58.98
2017-03-29T08:34:06.888Z,59.56
2017-03-29T08:34:47.769Z,59.84
2017-03-29T08:35:28.642Z,59.75
2017-03-29T08:36:09.521Z,60.23
2017-03-29T08:36:50.438Z,60.23
2017-03-29T08:37:31.307Z,60.04
2017-03-29T08:38:12.187Z,59.56
2017-03-29T08:38:53.074Z,59.94
2017-03-29T08:39:33.957Z,59.84
2017-03-29T08:40:14.839Z,59.84
2017-03-29T08:40:55.721Z,59.66
2017-03-29T08:41:36.613Z,59.94
2017-03-29T08:42:17.493Z,60.33
2017-03-29T08:42:58.373Z,60.23
2017-03-29T08:43:39.255Z,59.94
2017-03-29T08:44:20.148Z,59.75
2017-03-29T08:45:01.033Z,59.84
2017-03-29T08:45:41.912Z,59.66
2017-03-29T08:46:22.790Z,59.66
2017-03-29T08:47:03.676Z,59.94
2017-03-29T08:47:44.552Z,59.37
2017-03-29T08:48:25.439Z,59.18
2017-03-29T08:49:06.329Z,58.98
2017-03-29T08:49:47.218Z,59.11
2017-03-29T08:50:28.096Z,59.49
2017-03-29T08:51:08.975Z,59.47
2017-03-29T08:51:49.847Z,59.94
2017-03-29T08:52:30.738Z,60.04
2017-03-29T08:53:11.624Z,59.84
2017-03-29T08:53:52.507Z,59.94
2017-03-29T08:54:33.387Z,60.13
2017-03-29T08:55:14.267Z,59.84
2017-03-29T08:55:55.155Z,59.84
2017-03-29T08:56:36.037Z,60.23
2017-03-29T08:57:16.939Z,60.23
2017-03-29T08:57:57.825Z,59.84
2017-03-29T08:58:38.706Z,59.97
2017-03-29T08:59:19.593Z,59.59
2017-03-29T09:00:00.494Z,59.49